Time;durP1;ratioP1;P1;durP2;ratioP2;P2;SDS_P1;SDS_P2;PMS_P1;PMS_P2;Temp;Humidity;BMP_temperature;BMP_pressure;BME280_temperature;BME280_humidity;BME280_pressure;Samples;Min_cycle;Max_cycle;Signal;HPM_P1;HPM_P2
2023/06/20 00:03:16;;;;;;;7.55;5.53;;;26.80;91.30;;;;;;10128451;28;20112;-60
2023/06/20 00:08:06;;;;;;;5.82;4.50;;;26.80;91.40;;;;;;10122571;28;20494;-59
2023/06/20 00:12:59;;;;;;;11.43;4.93;;;26.70;91.60;;;;;;10137324;28;20036;-60
2023/06/20 00:17:49;;;;;;;9.55;6.13;;;26.80;91.70;;;;;;10132642;28;20547;-59
2023/06/20 00:22:40;;;;;;;7.20;4.65;;;26.70;91.90;;;;;;10135023;28;20101;-59
2023/06/20 00:27:31;;;;;;;8.00;4.53;;;26.70;92.10;;;;;;10128477;28;20069;-59
2023/06/20 00:32:21;;;;;;;6.32;5.05;;;26.60;92.30;;;;;;10124013;28;20494;-61
2023/06/20 00:37:12;;;;;;;5.82;4.20;;;26.40;92.70;;;;;;10121546;28;20514;-61
2023/06/20 00:42:04;;;;;;;6.47;5.38;;;26.40;92.90;;;;;;10114175;28;20037;-62
2023/06/20 00:46:55;;;;;;;7.38;5.15;;;26.30;93.20;;;;;;10124599;28;20457;-60
2023/06/20 00:51:46;;;;;;;6.60;5.15;;;26.20;93.50;;;;;;10121742;28;20035;-59
2023/06/20 00:56:37;;;;;;;7.88;5.20;;;26.20;93.80;;;;;;10129010;28;20574;-62
2023/06/20 01:01:31;;;;;;;6.10;5.07;;;26.00;94.10;;;;;;10091274;28;20043;-60
2023/06/20 01:06:36;;;;;;;;;;;26.00;94.50;;;;;;10130164;28;20051;-63
2023/06/20 01:11:41;;;;;;;8.27;5.77;;;26.00;94.60;;;;;;10125907;28;20052;-60
2023/06/20 01:16:57;;;;;;;7.18;5.68;;;26.10;94.60;;;;;;10128829;28;20024;-61
2023/06/20 01:21:57;;;;;;;5.88;5.07;;;26.00;94.80;;;;;;10121372;28;20041;-63
2023/06/20 01:27:01;;;;;;;6.68;5.55;;;25.90;95.00;;;;;;10136462;28;20020;-58
2023/06/20 01:31:59;;;;;;;6.47;5.17;;;25.80;95.30;;;;;;10137763;28;20407;-63
2023/06/20 01:36:56;;;;;;;7.20;5.40;;;25.90;95.30;;;;;;10143066;28;20028;-58
2023/06/20 01:41:48;;;;;;;7.95;5.50;;;25.80;95.60;;;;;;10141949;28;20045;-59
2023/06/20 01:46:39;;;;;;;11.25;7.28;;;25.80;95.80;;;;;;10138240;28;20135;-59
2023/06/20 01:51:32;;;;;;;12.70;9.07;;;25.70;95.90;;;;;;10138726;28;20206;-65
2023/06/20 01:56:26;;;;;;;10.38;8.32;;;25.50;96.40;;;;;;10136149;28;20033;-58
2023/06/20 02:01:18;;;;;;;10.23;7.68;;;25.60;96.10;;;;;;10129804;28;20048;-60
2023/06/20 02:06:11;;;;;;;9.73;6.82;;;25.40;96.40;;;;;;10137266;28;20045;-62
2023/06/20 02:11:03;;;;;;;10.13;7.90;;;25.40;96.60;;;;;;10136740;28;20044;-59
2023/06/20 02:15:54;;;;;;;9.02;6.45;;;25.30;96.60;;;;;;10127876;28;20032;-59
2023/06/20 02:20:50;;;;;;;9.32;5.75;;;25.10;96.90;;;;;;10135391;28;20020;-60
2023/06/20 02:25:44;;;;;;;7.10;5.97;;;25.10;97.10;;;;;;10140335;28;20031;-59
2023/06/20 02:30:37;;;;;;;7.85;5.88;;;25.20;97.20;;;;;;10130335;28;20041;-61
2023/06/20 02:35:31;;;;;;;7.88;5.68;;;25.10;97.30;;;;;;10131882;28;20103;-59
2023/06/20 02:40:23;;;;;;;7.90;5.90;;;25.00;97.50;;;;;;10137213;28;20029;-58
2023/06/20 02:45:14;;;;;;;7.55;6.05;;;25.00;97.60;;;;;;10137550;28;20442;-59
2023/06/20 02:50:15;;;;;;;9.45;6.13;;;24.90;97.80;;;;;;10138736;28;20024;-59
2023/06/20 02:55:36;;;;;;;8.68;6.07;;;24.90;98.00;;;;;;10107540;28;20107;-59
2023/06/20 03:00:29;;;;;;;7.80;5.75;;;24.90;98.10;;;;;;10119351;28;20066;-59
2023/06/20 03:05:22;;;;;;;6.80;5.63;;;24.80;98.30;;;;;;10111593;28;20020;-60
2023/06/20 03:10:13;;;;;;;6.57;5.28;;;24.70;98.60;;;;;;10126356;28;20048;-59
2023/06/20 03:15:04;;;;;;;7.32;5.50;;;24.70;98.70;;;;;;10136373;28;20036;-59
2023/06/20 03:19:55;;;;;;;9.20;6.40;;;24.80;98.80;;;;;;10129189;28;20028;-59
2023/06/20 03:24:47;;;;;;;9.43;6.22;;;24.70;98.80;;;;;;10136128;28;20032;-61
2023/06/20 03:29:38;;;;;;;10.65;6.18;;;24.70;99.00;;;;;;10124314;28;20065;-61
2023/06/20 03:34:29;;;;;;;10.60;7.22;;;24.60;99.40;;;;;;10121677;28;20044;-60
2023/06/20 03:39:20;;;;;;;10.18;6.95;;;24.60;99.50;;;;;;10131717;28;20394;-58
2023/06/20 03:44:11;;;;;;;10.57;6.47;;;24.60;99.60;;;;;;10128490;28;20036;-58
2023/06/20 03:49:01;;;;;;;11.68;6.40;;;24.50;99.80;;;;;;10137277;28;20063;-58
2023/06/20 03:53:52;;;;;;;10.40;7.18;;;24.60;99.90;;;;;;10128383;28;20076;-60
2023/06/20 03:58:43;;;;;;;8.68;6.10;;;24.70;99.90;;;;;;10122478;28;20024;-63
2023/06/20 04:03:33;;;;;;;9.07;6.28;;;24.70;99.90;;;;;;10131533;28;20060;-60
2023/06/20 04:08:25;;;;;;;9.85;6.13;;;24.60;99.90;;;;;;10135796;28;20048;-59
2023/06/20 04:13:16;;;;;;;9.57;6.65;;;24.70;99.90;;;;;;10132905;28;20052;-58
2023/06/20 04:18:06;;;;;;;9.20;5.50;;;24.70;99.90;;;;;;10133328;28;20573;-61
2023/06/20 04:22:57;;;;;;;8.93;5.88;;;24.70;99.90;;;;;;10125055;28;20029;-58
2023/06/20 04:27:53;;;;;;;7.85;6.03;;;24.70;99.90;;;;;;10131903;28;20229;-59
2023/06/20 04:32:44;;;;;;;10.45;7.07;;;24.60;99.90;;;;;;10130228;28;20063;-60
2023/06/20 04:37:34;;;;;;;8.48;6.55;;;24.50;99.90;;;;;;10134925;28;20024;-62
2023/06/20 04:42:25;;;;;;;8.40;6.32;;;24.50;99.90;;;;;;10134481;28;20078;-58
2023/06/20 04:47:16;;;;;;;7.70;5.60;;;24.60;99.90;;;;;;10132927;28;20021;-59
2023/06/20 04:52:07;;;;;;;9.95;6.32;;;24.70;99.90;;;;;;10139169;28;20045;-59
2023/06/20 04:56:57;;;;;;;9.68;5.55;;;24.60;99.90;;;;;;10140849;28;20086;-60
2023/06/20 05:01:51;;;;;;;8.15;5.88;;;24.60;99.90;;;;;;10123910;28;20033;-58
2023/06/20 05:06:42;;;;;;;8.10;5.82;;;24.70;99.90;;;;;;10125651;28;20478;-60
2023/06/20 05:11:32;;;;;;;9.02;5.75;;;24.80;99.90;;;;;;10141410;28;20088;-60
2023/06/20 05:16:23;;;;;;;9.10;5.60;;;24.80;99.80;;;;;;10137816;28;20028;-59
2023/06/20 05:21:13;;;;;;;8.00;5.55;;;24.80;99.80;;;;;;10136234;28;20506;-55
2023/06/20 05:26:04;;;;;;;8.73;6.28;;;24.80;99.90;;;;;;10144362;28;20054;-57
2023/06/20 05:30:55;;;;;;;10.05;5.97;;;24.80;99.90;;;;;;10143066;28;20037;-55
2023/06/20 05:35:46;;;;;;;7.32;5.43;;;24.90;99.90;;;;;;10139770;28;20036;-60
2023/06/20 05:40:37;;;;;;;10.15;6.35;;;24.90;99.80;;;;;;10137509;28;20442;-59
2023/06/20 05:45:27;;;;;;;6.35;4.85;;;24.90;99.90;;;;;;10141419;28;20024;-59
2023/06/20 05:50:18;;;;;;;7.07;5.28;;;24.90;99.90;;;;;;10140682;28;20052;-59
2023/06/20 05:55:09;;;;;;;11.93;5.30;;;25.00;99.80;;;;;;10122236;28;20430;-59
2023/06/20 06:00:00;;;;;;;7.75;6.00;;;25.20;99.70;;;;;;10130122;28;20025;-62
2023/06/20 06:04:50;;;;;;;11.05;6.10;;;25.20;99.70;;;;;;10141628;28;20024;-59
2023/06/20 06:09:41;;;;;;;9.60;5.40;;;25.30;99.50;;;;;;10134089;28;20139;-58
2023/06/20 06:14:32;;;;;;;7.80;5.07;;;25.30;99.50;;;;;;10139099;28;20046;-58
2023/06/20 06:19:24;;;;;;;6.38;4.85;;;25.40;99.60;;;;;;10140282;28;20033;-58
2023/06/20 06:24:14;;;;;;;7.82;5.20;;;25.30;99.50;;;;;;10135355;28;20414;-59
2023/06/20 06:29:05;;;;;;;6.10;4.35;;;25.40;99.40;;;;;;10137628;28;20040;-60
2023/06/20 06:33:57;;;;;;;8.68;5.22;;;25.70;99.20;;;;;;10115665;28;20537;-63
2023/06/20 06:38:49;;;;;;;8.30;4.85;;;25.80;99.00;;;;;;10137517;28;20025;-59
2023/06/20 06:43:39;;;;;;;9.85;5.47;;;25.90;99.00;;;;;;10137655;28;20514;-59
2023/06/20 06:48:30;;;;;;;10.13;4.70;;;26.00;99.10;;;;;;10138636;28;20039;-58
2023/06/20 06:53:20;;;;;;;7.50;5.53;;;26.10;98.70;;;;;;10136320;28;20455;-60
2023/06/20 06:58:11;;;;;;;11.02;6.38;;;26.10;98.50;;;;;;10127885;28;20452;-59
2023/06/20 07:03:02;;;;;;;8.13;5.30;;;26.20;98.20;;;;;;10142483;28;20037;-59
2023/06/20 07:07:53;;;;;;;6.75;4.90;;;26.30;98.10;;;;;;10133875;28;20025;-58
2023/06/20 07:12:44;;;;;;;8.02;4.90;;;26.40;97.80;;;;;;10140649;28;20052;-59
2023/06/20 07:17:35;;;;;;;6.97;4.50;;;26.30;97.60;;;;;;10126522;28;20020;-58
2023/06/20 07:22:25;;;;;;;6.97;4.53;;;26.40;97.40;;;;;;10125410;28;20045;-59
2023/06/20 07:27:16;;;;;;;6.68;4.40;;;26.50;97.30;;;;;;10138719;28;20200;-59
2023/06/20 07:32:07;;;;;;;7.35;4.93;;;26.50;97.10;;;;;;10138533;28;20047;-61
2023/06/20 07:36:57;;;;;;;8.27;5.00;;;26.70;96.90;;;;;;10118804;28;20520;-62
2023/06/20 07:41:48;;;;;;;9.40;4.72;;;26.90;96.60;;;;;;10132611;28;20036;-60
2023/06/20 07:46:39;;;;;;;6.10;4.55;;;26.80;96.40;;;;;;10134092;28;20028;-61
2023/06/20 07:51:33;;;;;;;10.68;4.85;;;26.90;96.20;;;;;;10134974;28;20039;-60
2023/06/20 07:56:24;;;;;;;;;;;26.90;96.00;;;;;;10133020;28;20533;-59
2023/06/20 08:01:14;;;;;;;5.70;4.55;;;27.00;95.70;;;;;;10124852;28;19908;-62
2023/06/20 08:06:05;;;;;;;7.40;5.28;;;27.10;95.60;;;;;;10137039;28;20028;-61
2023/06/20 08:10:56;;;;;;;7.65;4.30;;;27.20;95.30;;;;;;10133975;28;20033;-61
2023/06/20 08:15:46;;;;;;;6.10;4.68;;;27.30;95.10;;;;;;10131377;28;20048;-60
2023/06/20 08:20:37;;;;;;;5.93;4.95;;;27.40;94.80;;;;;;10136543;28;20323;-60
2023/06/20 08:25:28;;;;;;;6.55;3.92;;;27.50;94.60;;;;;;10118213;28;20108;-60
2023/06/20 08:30:18;;;;;;;7.95;4.57;;;27.60;94.30;;;;;;10125194;28;20124;-61
2023/06/20 08:35:12;;;;;;;7.13;4.75;;;27.60;94.00;;;;;;10132456;28;20044;-62
2023/06/20 08:40:05;;;;;;;6.45;5.15;;;27.80;93.80;;;;;;10136901;28;20051;-60
2023/06/20 08:44:57;;;;;;;6.10;4.57;;;27.90;93.50;;;;;;10135247;28;20410;-61
2023/06/20 08:49:47;;;;;;;6.35;4.95;;;28.00;93.20;;;;;;10128586;28;20432;-61
2023/06/20 08:54:41;;;;;;;4.93;4.00;;;28.10;92.90;;;;;;10127443;28;20045;-59
2023/06/20 08:59:35;;;;;;;6.57;4.35;;;28.20;92.50;;;;;;10122169;28;20028;-62
2023/06/20 09:04:29;;;;;;;4.38;3.78;;;28.30;92.20;;;;;;10136747;28;20039;-58
2023/06/20 09:09:21;;;;;;;6.70;4.40;;;28.40;91.90;;;;;;10132084;28;20392;-58
2023/06/20 09:14:11;;;;;;;7.47;4.28;;;28.60;91.50;;;;;;10131566;28;20041;-59
2023/06/20 09:19:02;;;;;;;5.03;3.78;;;28.80;91.20;;;;;;10132239;28;20657;-59
2023/06/20 09:24:06;;;;;;;6.20;4.13;;;28.90;90.70;;;;;;10135683;28;20036;-60
2023/06/20 09:29:10;;;;;;;8.10;4.13;;;29.10;90.40;;;;;;10135178;28;20043;-58
2023/06/20 09:34:01;;;;;;;7.15;4.45;;;29.30;90.20;;;;;;10134528;28;20102;-61
2023/06/20 09:38:52;;;;;;;7.63;4.43;;;29.30;90.40;;;;;;10135737;28;20492;-62
2023/06/20 09:43:46;;;;;;;8.57;4.57;;;29.40;89.70;;;;;;10139079;28;20533;-62
2023/06/20 09:48:38;;;;;;;6.32;4.45;;;29.50;89.10;;;;;;10143841;28;20052;-65
2023/06/20 09:53:46;;;;;;;5.78;3.85;;;29.60;88.70;;;;;;10139940;28;20462;-62
2023/06/20 09:58:39;;;;;;;6.13;4.20;;;29.60;87.70;;;;;;10113929;28;20025;-62
2023/06/20 10:03:30;;;;;;;5.43;4.18;;;29.60;87.00;;;;;;10143099;28;20033;-61
2023/06/20 10:08:22;;;;;;;5.63;4.63;;;29.70;86.10;;;;;;10124908;28;20433;-64
2023/06/20 10:13:14;;;;;;;7.72;4.45;;;29.70;85.10;;;;;;10131202;28;20089;-62
2023/06/20 10:18:18;;;;;;;7.20;3.72;;;30.00;84.40;;;;;;10132240;28;20037;-61
2023/06/20 10:23:10;;;;;;;7.72;4.32;;;30.10;83.10;;;;;;10133937;28;20377;-61
2023/06/20 10:28:05;;;;;;;6.63;4.18;;;30.20;82.70;;;;;;10123056;28;20031;-61
2023/06/20 10:33:08;;;;;;;5.03;3.45;;;30.20;81.90;;;;;;10140928;28;20178;-60
2023/06/20 10:38:08;;;;;;;6.50;4.38;;;30.40;80.80;;;;;;10129880;28;20036;-62
2023/06/20 10:42:59;;;;;;;4.80;3.90;;;30.60;80.50;;;;;;10141223;28;20040;-61
2023/06/20 10:47:50;;;;;;;4.63;3.97;;;30.70;80.20;;;;;;10140773;28;20465;-62
2023/06/20 10:52:41;;;;;;;5.65;3.83;;;30.80;79.50;;;;;;10139490;28;20029;-64
2023/06/20 10:57:34;;;;;;;4.60;4.03;;;30.80;78.90;;;;;;10112173;28;20059;-63
2023/06/20 11:02:25;;;;;;;5.50;3.80;;;31.00;78.30;;;;;;10117164;28;20461;-64
2023/06/20 11:07:16;;;;;;;4.60;3.85;;;31.30;77.90;;;;;;10135412;28;20119;-65
2023/06/20 11:12:10;;;;;;;8.82;4.80;;;31.30;77.30;;;;;;10171413;28;20056;-65
2023/06/20 11:17:01;;;;;;;5.53;3.83;;;31.40;77.00;;;;;;10179179;28;20038;-64
2023/06/20 11:21:53;;;;;;;7.05;5.35;;;31.50;76.50;;;;;;10177722;28;20421;-62
2023/06/20 11:26:44;;;;;;;6.63;4.05;;;31.50;76.60;;;;;;10169547;28;20024;-63
2023/06/20 11:31:34;;;;;;;5.38;4.50;;;31.80;75.50;;;;;;10178645;28;20044;-62
2023/06/20 11:36:25;;;;;;;6.60;3.67;;;31.70;75.10;;;;;;10172185;28;20032;-65
2023/06/20 11:41:16;;;;;;;7.18;4.03;;;32.00;74.70;;;;;;10170808;28;20039;-62
2023/06/20 11:46:07;;;;;;;5.25;4.10;;;32.00;74.10;;;;;;10170530;28;20028;-62
2023/06/20 11:51:00;;;;;;;6.22;4.25;;;32.10;73.50;;;;;;10154382;28;20039;-62
2023/06/20 11:55:56;;;;;;;5.00;3.87;;;32.30;73.00;;;;;;10165470;28;20067;-62
2023/06/20 12:00:59;;;;;;;5.15;3.88;;;32.40;72.40;;;;;;10159106;28;20031;-62
2023/06/20 12:05:51;;;;;;;4.53;3.70;;;32.70;71.70;;;;;;10173909;28;20185;-62
2023/06/20 12:10:57;;;;;;;12.27;4.53;;;32.90;71.50;;;;;;10153586;28;20067;-62
2023/06/20 12:15:48;;;;;;;7.15;3.97;;;33.10;70.90;;;;;;10123653;28;20040;-64
2023/06/20 12:20:38;;;;;;;5.45;3.97;;;33.50;70.50;;;;;;10129598;28;20051;-63
2023/06/20 12:25:29;;;;;;;5.70;4.07;;;33.80;70.00;;;;;;10125684;28;20115;-64
2023/06/20 12:30:20;;;;;;;4.93;3.55;;;34.10;69.60;;;;;;10119036;28;20051;-65
2023/06/20 12:35:10;;;;;;;5.78;4.60;;;34.50;69.30;;;;;;10112960;28;20058;-66
2023/06/20 12:40:01;;;;;;;5.80;3.58;;;34.80;68.90;;;;;;10125586;28;20025;-62
2023/06/20 12:44:52;;;;;;;5.95;4.28;;;34.90;68.40;;;;;;10124061;28;20113;-63
2023/06/20 12:49:43;;;;;;;6.97;4.93;;;34.60;67.90;;;;;;10107230;28;20033;-65
2023/06/20 12:54:33;;;;;;;6.63;3.95;;;34.80;67.40;;;;;;10128185;28;20029;-62
2023/06/20 12:59:24;;;;;;;5.10;4.47;;;35.50;66.80;;;;;;10124032;28;20017;-65
2023/06/20 13:04:15;;;;;;;8.32;4.60;;;35.50;66.30;;;;;;10129716;28;20029;-64
2023/06/20 13:09:06;;;;;;;6.53;5.07;;;34.90;66.20;;;;;;10126589;28;20025;-64
2023/06/20 13:13:56;;;;;;;6.53;4.47;;;36.20;65.40;;;;;;10136243;28;20055;-62
2023/06/20 13:18:47;;;;;;;7.13;3.93;;;37.50;64.30;;;;;;10139528;28;20032;-64
2023/06/20 13:23:38;;;;;;;;;;;38.50;63.30;;;;;;10143970;28;20029;-66
2023/06/20 13:28:28;;;;;;;8.47;3.90;;;39.10;61.90;;;;;;10143271;28;19904;-65
2023/06/20 13:33:19;;;;;;;6.50;4.80;;;39.70;61.70;;;;;;10140797;28;20044;-65
2023/06/20 13:38:10;;;;;;;7.85;4.28;;;39.60;60.90;;;;;;10142039;28;20028;-63
2023/06/20 13:43:05;;;;;;;5.53;3.88;;;40.10;59.70;;;;;;10142202;28;20028;-65
2023/06/20 13:47:55;;;;;;;6.53;4.15;;;40.30;58.80;;;;;;10137572;28;20028;-67
2023/06/20 13:52:47;;;;;;;7.80;3.60;;;39.30;58.20;;;;;;10136546;28;20498;-61
2023/06/20 13:57:37;;;;;;;;;;;38.10;58.50;;;;;;10127520;28;20075;-62
2023/06/20 14:02:28;;;;;;;7.15;4.50;;;36.60;59.20;;;;;;10134343;28;19958;-62
2023/06/20 14:07:19;;;;;;;8.53;4.27;;;38.10;58.40;;;;;;10131457;28;20025;-60
2023/06/20 14:12:11;;;;;;;7.95;4.10;;;38.70;57.10;;;;;;10125739;28;20044;-62
2023/06/20 14:17:01;;;;;;;;;;;38.90;56.60;;;;;;10138660;28;20119;-63
2023/06/20 14:21:52;;;;;;;6.43;4.20;;;39.90;55.60;;;;;;10132622;28;20010;-61
2023/06/20 14:26:42;;;;;;;7.85;4.30;;;41.10;55.10;;;;;;10139687;28;20175;-62
2023/06/20 14:31:33;;;;;;;6.20;3.70;;;41.50;54.10;;;;;;10140686;28;20549;-61
2023/06/20 14:36:28;;;;;;;5.13;4.00;;;41.40;53.80;;;;;;10125970;28;20542;-62
2023/06/20 14:41:19;;;;;;;4.13;3.47;;;41.60;53.20;;;;;;10139643;28;20033;-62
2023/06/20 14:46:11;;;;;;;4.90;3.65;;;41.30;52.90;;;;;;10137876;28;20047;-62
2023/06/20 14:51:01;;;;;;;5.68;4.63;;;41.90;52.20;;;;;;10135914;28;20032;-62
2023/06/20 14:55:52;;;;;;;5.18;3.72;;;42.20;51.30;;;;;;10140397;28;20509;-61
2023/06/20 15:00:42;;;;;;;;;;;41.10;52.00;;;;;;10125550;28;20112;-61
2023/06/20 15:05:33;;;;;;;6.47;3.97;;;39.70;52.60;;;;;;10136247;28;19912;-61
2023/06/20 15:10:24;;;;;;;8.23;3.83;;;39.10;52.90;;;;;;10133314;28;20039;-61
2023/06/20 15:15:14;;;;;;;9.87;4.00;;;39.70;52.20;;;;;;10138369;28;20314;-59
2023/06/20 15:20:06;;;;;;;7.97;4.67;;;38.70;52.80;;;;;;10124913;28;20029;-61
2023/06/20 15:24:56;;;;;;;7.73;4.03;;;38.20;53.00;;;;;;10136744;28;20115;-61
2023/06/20 15:29:47;;;;;;;9.25;4.97;;;37.00;53.60;;;;;;10138333;28;20484;-61
2023/06/20 15:34:38;;;;;;;8.07;4.10;;;36.60;54.00;;;;;;10133176;28;20466;-63
2023/06/20 15:39:28;;;;;;;9.65;3.97;;;36.10;54.20;;;;;;10129817;28;20029;-63
2023/06/20 15:44:19;;;;;;;9.90;4.20;;;35.60;54.70;;;;;;10138321;28;20041;-63
2023/06/20 15:49:10;;;;;;;4.75;4.18;;;35.50;54.90;;;;;;10129381;28;20028;-60
2023/06/20 15:54:01;;;;;;;6.57;3.92;;;35.30;55.00;;;;;;10131045;28;20415;-64
2023/06/20 15:58:51;;;;;;;5.88;4.30;;;35.10;55.30;;;;;;10121508;28;20036;-64
2023/06/20 16:03:42;;;;;;;7.20;3.97;;;34.80;55.70;;;;;;10129056;28;20062;-65
2023/06/20 16:08:33;;;;;;;6.93;4.07;;;34.60;56.30;;;;;;10132353;28;20020;-62
2023/06/20 16:13:24;;;;;;;9.77;5.18;;;34.30;56.60;;;;;;10145217;28;20162;-66
2023/06/20 16:18:14;;;;;;;7.38;4.03;;;34.10;57.00;;;;;;10172330;28;20450;-64
2023/06/20 16:23:06;;;;;;;4.75;3.60;;;33.90;57.10;;;;;;10169715;28;20075;-64
2023/06/20 16:27:57;;;;;;;7.20;4.50;;;33.70;57.40;;;;;;10177824;28;20024;-64
2023/06/20 16:32:47;;;;;;;11.07;3.83;;;33.80;57.30;;;;;;10171590;28;20044;-62
2023/06/20 16:37:38;;;;;;;7.78;3.83;;;33.80;57.00;;;;;;10172800;28;20366;-60
2023/06/20 16:42:29;;;;;;;6.43;4.10;;;33.90;56.60;;;;;;10174592;28;20068;-62
2023/06/20 16:47:20;;;;;;;5.97;3.63;;;33.90;56.30;;;;;;10173828;28;20115;-60
2023/06/20 16:52:11;;;;;;;9.35;3.97;;;33.80;56.20;;;;;;10168552;28;20454;-63
2023/06/20 16:57:01;;;;;;;9.07;6.10;;;33.50;56.20;;;;;;10175398;28;20042;-60
2023/06/20 17:01:52;;;;;;;7.07;4.40;;;33.20;57.80;;;;;;10176481;28;20046;-60
2023/06/20 17:06:42;;;;;;;9.35;5.97;;;32.80;58.40;;;;;;10174884;28;20035;-63
2023/06/20 17:11:33;;;;;;;7.40;4.95;;;32.30;60.00;;;;;;10164976;28;20040;-61
2023/06/20 17:16:24;;;;;;;6.10;4.63;;;32.30;60.80;;;;;;10130285;28;20033;-62
2023/06/20 17:21:14;;;;;;;6.75;4.05;;;32.10;61.30;;;;;;10128651;28;20204;-62
2023/06/20 17:26:05;;;;;;;8.15;4.85;;;31.90;62.00;;;;;;10104845;28;20078;-61
2023/06/20 17:30:56;;;;;;;9.13;5.15;;;32.00;62.10;;;;;;10132079;28;20029;-61
2023/06/20 17:35:47;;;;;;;5.85;4.10;;;31.90;62.30;;;;;;10114017;28;20080;-62
2023/06/20 17:40:38;;;;;;;9.30;4.57;;;31.80;62.80;;;;;;10123776;28;20027;-62
2023/06/20 17:45:29;;;;;;;7.30;4.47;;;31.60;62.90;;;;;;10122797;28;20116;-63
2023/06/20 17:50:20;;;;;;;7.53;4.43;;;31.30;63.30;;;;;;10123639;28;20550;-65
2023/06/20 17:55:11;;;;;;;7.20;3.92;;;31.30;63.30;;;;;;10126924;28;20498;-66
2023/06/20 18:00:02;;;;;;;5.38;4.22;;;31.30;63.40;;;;;;10110155;28;20099;-62
2023/06/20 18:04:53;;;;;;;7.53;4.70;;;31.20;63.40;;;;;;10129158;28;20035;-63
2023/06/20 18:09:44;;;;;;;10.50;4.18;;;30.90;63.90;;;;;;10100558;28;20029;-61
2023/06/20 18:14:35;;;;;;;8.40;4.20;;;30.80;64.10;;;;;;10136193;28;20123;-62
2023/06/20 18:19:26;;;;;;;6.40;4.25;;;30.60;64.40;;;;;;10119404;28;20033;-64
2023/06/20 18:24:17;;;;;;;6.30;4.35;;;30.70;64.50;;;;;;10120837;28;20448;-62
2023/06/20 18:29:07;;;;;;;7.93;4.35;;;30.70;64.40;;;;;;10141193;28;20108;-60
2023/06/20 18:33:58;;;;;;;8.63;6.00;;;30.70;64.50;;;;;;10133442;28;20503;-60
2023/06/20 18:38:49;;;;;;;8.05;4.47;;;30.70;64.50;;;;;;10138721;28;20032;-62
2023/06/20 18:43:39;;;;;;;8.95;4.70;;;30.70;64.60;;;;;;10133774;28;20039;-61
2023/06/20 18:48:33;;;;;;;9.30;4.78;;;30.50;65.30;;;;;;10131621;28;20494;-60
2023/06/20 18:53:24;;;;;;;9.00;4.60;;;30.40;65.00;;;;;;10137339;28;20045;-62
2023/06/20 18:58:15;;;;;;;6.60;4.35;;;30.10;65.40;;;;;;10123939;28;20146;-62
2023/06/20 19:03:10;;;;;;;7.97;4.40;;;29.90;65.90;;;;;;10137365;28;20025;-61
2023/06/20 19:08:01;;;;;;;15.32;5.93;;;29.80;66.30;;;;;;10132963;28;20036;-61
2023/06/20 19:12:51;;;;;;;8.07;4.10;;;29.90;66.40;;;;;;10130819;28;20054;-61
2023/06/20 19:17:42;;;;;;;8.82;4.50;;;29.70;66.80;;;;;;10137361;28;20463;-61
2023/06/20 19:22:33;;;;;;;5.53;4.20;;;29.50;67.70;;;;;;10114553;28;20209;-61
2023/06/20 19:27:23;;;;;;;8.45;4.95;;;29.40;68.20;;;;;;10136760;28;20437;-60
2023/06/20 19:32:14;;;;;;;5.07;4.07;;;29.20;68.60;;;;;;10116343;28;20521;-64
2023/06/20 19:37:06;;;;;;;6.55;4.30;;;29.40;68.90;;;;;;10117398;28;20158;-62
2023/06/20 19:41:56;;;;;;;4.78;3.83;;;29.30;69.30;;;;;;10110596;28;20028;-61
2023/06/20 19:46:49;;;;;;;6.13;4.55;;;29.40;69.70;;;;;;10120440;28;20033;-61
2023/06/20 19:51:41;;;;;;;7.32;5.40;;;29.30;70.00;;;;;;10130745;28;20027;-61
2023/06/20 19:56:32;;;;;;;10.13;4.32;;;29.20;70.60;;;;;;10124262;28;20036;-62
2023/06/20 20:01:24;;;;;;;8.05;4.68;;;29.20;70.90;;;;;;10110969;28;20032;-61
2023/06/20 20:06:15;;;;;;;12.15;5.55;;;29.50;70.70;;;;;;10111023;28;20032;-66
2023/06/20 20:11:06;;;;;;;7.20;4.18;;;29.60;70.80;;;;;;10125805;28;20085;-66
2023/06/20 20:15:56;;;;;;;6.75;4.55;;;29.70;70.90;;;;;;10121727;28;20032;-65
2023/06/20 20:20:47;;;;;;;6.25;4.00;;;29.60;71.30;;;;;;10134078;28;20052;-65
2023/06/20 20:25:37;;;;;;;7.90;5.05;;;29.60;71.30;;;;;;10132801;28;20032;-65
2023/06/20 20:30:28;;;;;;;7.35;4.45;;;29.60;71.50;;;;;;10114933;28;20039;-65
2023/06/20 20:35:19;;;;;;;6.82;5.28;;;29.40;71.80;;;;;;10119932;28;20037;-60
2023/06/20 20:40:10;;;;;;;8.98;4.78;;;29.50;71.90;;;;;;10118114;28;20403;-65
2023/06/20 20:45:01;;;;;;;7.20;4.28;;;29.50;72.30;;;;;;10111892;28;20029;-62
2023/06/20 20:49:52;;;;;;;8.57;4.55;;;29.60;72.50;;;;;;10127442;28;20060;-60
2023/06/20 20:54:42;;;;;;;8.20;5.00;;;29.60;73.40;;;;;;10125103;28;20037;-62
2023/06/20 20:59:33;;;;;;;6.82;4.32;;;29.50;72.90;;;;;;10120607;28;20035;-61
2023/06/20 21:04:24;;;;;;;5.88;4.32;;;29.40;73.10;;;;;;10132909;28;20067;-59
2023/06/20 21:09:14;;;;;;;8.07;5.95;;;29.40;73.30;;;;;;10116667;28;20104;-60
2023/06/20 21:14:05;;;;;;;7.18;4.65;;;29.40;73.40;;;;;;10124751;28;20058;-62
2023/06/20 21:18:57;;;;;;;9.27;5.18;;;29.30;73.70;;;;;;10110050;28;20082;-61
2023/06/20 21:23:48;;;;;;;8.25;4.88;;;29.30;73.80;;;;;;10135818;28;20040;-61
2023/06/20 21:28:39;;;;;;;8.60;5.18;;;29.30;73.90;;;;;;10131762;28;20029;-61
2023/06/20 21:33:31;;;;;;;10.10;5.20;;;29.40;73.90;;;;;;10118610;28;20123;-64
2023/06/20 21:38:22;;;;;;;8.15;5.85;;;29.30;74.10;;;;;;10125721;28;20036;-60
2023/06/20 21:43:12;;;;;;;13.10;8.00;;;29.20;74.30;;;;;;10120582;28;20047;-58
2023/06/20 21:48:04;;;;;;;9.55;5.97;;;29.20;74.50;;;;;;10123804;28;20064;-60
2023/06/20 21:52:54;;;;;;;9.18;6.13;;;29.10;74.60;;;;;;10135066;28;20036;-59
2023/06/20 21:57:46;;;;;;;7.55;5.57;;;29.10;74.90;;;;;;10129457;28;20033;-60
2023/06/20 22:02:36;;;;;;;6.78;4.88;;;28.90;75.00;;;;;;10129716;28;20086;-61
2023/06/20 22:07:30;;;;;;;9.27;5.25;;;28.90;75.20;;;;;;10125038;28;20102;-60
2023/06/20 22:12:20;;;;;;;9.27;5.23;;;28.70;75.40;;;;;;10127307;28;20124;-63
2023/06/20 22:17:16;;;;;;;6.35;4.90;;;28.60;75.80;;;;;;10141663;28;20112;-60
2023/06/20 22:22:07;;;;;;;7.45;5.18;;;28.30;76.20;;;;;;10131693;28;20486;-60
2023/06/20 22:26:58;;;;;;;6.18;5.28;;;28.30;76.50;;;;;;10134548;28;20033;-60
2023/06/20 22:31:48;;;;;;;7.45;4.80;;;28.40;76.40;;;;;;10131538;28;20028;-60
2023/06/20 22:36:39;;;;;;;7.72;5.32;;;28.50;76.50;;;;;;10128739;28;20051;-65
2023/06/20 22:41:30;;;;;;;5.97;4.35;;;28.50;76.70;;;;;;10133157;28;20037;-61
2023/06/20 22:46:23;;;;;;;10.57;7.00;;;28.50;76.90;;;;;;10133846;28;20035;-61
2023/06/20 22:51:14;;;;;;;6.15;5.05;;;28.40;77.10;;;;;;10136664;28;20218;-60
2023/06/20 22:56:04;;;;;;;7.10;5.03;;;28.30;77.50;;;;;;10132367;28;20521;-60
2023/06/20 23:00:55;;;;;;;7.03;5.20;;;28.20;77.60;;;;;;10122666;28;20029;-61
2023/06/20 23:05:46;;;;;;;7.93;4.90;;;28.20;78.00;;;;;;10126114;28;20017;-61
2023/06/20 23:10:37;;;;;;;7.90;5.10;;;28.20;78.10;;;;;;10131447;28;20597;-62
2023/06/20 23:15:27;;;;;;;5.72;5.00;;;28.20;78.30;;;;;;10136686;28;20417;-61
2023/06/20 23:20:19;;;;;;;5.18;4.60;;;28.10;78.60;;;;;;10121916;28;20067;-60
2023/06/20 23:25:13;;;;;;;8.23;4.80;;;28.00;78.80;;;;;;10134757;28;20169;-58
2023/06/20 23:30:09;;;;;;;8.32;5.15;;;28.00;79.30;;;;;;10125875;28;20550;-59
2023/06/20 23:35:00;;;;;;;6.30;4.65;;;27.90;79.30;;;;;;10108939;28;20158;-62
2023/06/20 23:39:50;;;;;;;7.35;5.07;;;28.00;79.50;;;;;;10120787;28;20390;-60
2023/06/20 23:44:41;;;;;;;7.15;4.95;;;27.80;79.80;;;;;;10135507;28;20040;-62
2023/06/20 23:49:32;;;;;;;8.75;5.13;;;27.80;80.00;;;;;;10137304;28;20107;-62
2023/06/20 23:54:25;;;;;;;6.15;5.20;;;27.80;80.30;;;;;;10136409;28;20041;-61
2023/06/20 23:59:16;;;;;;;7.72;5.00;;;27.70;80.50;;;;;;10124348;28;20032;-58
